createdAt,value
2023-04-13T00:02:20.743Z,93966.25
2023-04-13T00:04:47.123Z,93962.53
2023-04-13T00:07:13.444Z,93962.72
2023-04-13T00:09:39.769Z,93963.56
2023-04-13T00:12:06.079Z,93954.59
2023-04-13T00:14:32.381Z,93957.59
2023-04-13T00:16:58.727Z,93954.00
2023-04-13T00:19:25.078Z,93941.69
2023-04-13T00:21:51.394Z,93947.81
2023-04-13T00:24:17.723Z,93943.94
2023-04-13T00:26:44.022Z,93952.44
2023-04-13T00:29:10.315Z,93937.91
2023-04-13T00:31:36.625Z,93948.78
2023-04-13T00:34:02.951Z,93934.13
2023-04-13T00:36:29.270Z,93940.53
2023-04-13T00:38:55.564Z,93928.88
2023-04-13T00:41:21.881Z,93925.81
2023-04-13T00:43:48.187Z,93914.59
2023-04-13T00:46:14.523Z,93922.84
2023-04-13T00:48:40.868Z,93917.78
2023-04-13T00:51:07.173Z,93922.00
2023-04-13T00:53:33.470Z,93912.25
2023-04-13T00:55:59.794Z,93914.44
2023-04-13T00:58:26.117Z,93918.53
2023-04-13T01:00:52.423Z,93911.56
2023-04-13T01:03:18.826Z,93916.59
2023-04-13T01:05:45.228Z,93913.78
2023-04-13T01:08:11.548Z,93910.75
2023-04-13T01:10:37.854Z,93915.56
2023-04-13T01:13:04.194Z,93917.97
2023-04-13T01:15:30.515Z,93924.59
2023-04-13T01:17:56.904Z,93918.47
2023-04-13T01:20:23.265Z,93917.56
2023-04-13T01:22:49.611Z,93905.72
2023-04-13T01:25:15.949Z,93914.00
2023-04-13T01:27:42.267Z,93906.81
2023-04-13T01:30:08.581Z,93907.97
2023-04-13T01:32:34.964Z,93904.41
2023-04-13T01:35:01.299Z,93900.47
2023-04-13T01:37:27.603Z,93904.91
2023-04-13T01:39:53.923Z,93897.56
2023-04-13T01:42:20.227Z,93893.47
2023-04-13T01:44:46.521Z,93894.13
2023-04-13T01:47:12.853Z,93887.09
2023-04-13T01:49:39.185Z,93897.78
2023-04-13T01:52:05.502Z,93895.91
2023-04-13T01:54:31.829Z,93901.16
2023-04-13T01:56:58.149Z,93901.78
2023-04-13T01:59:24.462Z,93908.56
2023-04-13T02:01:50.792Z,93915.41
2023-04-13T02:04:17.298Z,93910.00
2023-04-13T02:06:43.784Z,93906.22
2023-04-13T02:09:10.119Z,93909.13
2023-04-13T02:11:36.431Z,93912.09
2023-04-13T02:14:02.755Z,93909.81
2023-04-13T02:16:29.076Z,93908.78
2023-04-13T02:18:55.384Z,93910.25
2023-04-13T02:21:21.681Z,93912.59
2023-04-13T02:23:48.000Z,93908.25
2023-04-13T02:26:14.318Z,93908.78
2023-04-13T02:28:40.617Z,93915.19
2023-04-13T02:31:06.937Z,93920.78
2023-04-13T02:33:33.250Z,93914.94
2023-04-13T02:35:59.612Z,93895.38
2023-04-13T02:38:25.930Z,93912.38
2023-04-13T02:40:52.245Z,93916.41
2023-04-13T02:43:18.547Z,93900.72
2023-04-13T02:45:44.897Z,93909.69
2023-04-13T02:48:11.224Z,93907.69
2023-04-13T02:50:37.540Z,93912.94
2023-04-13T02:53:03.841Z,93907.38
2023-04-13T02:55:30.153Z,93909.84
2023-04-13T02:57:56.461Z,93907.03
2023-04-13T03:00:22.764Z,93909.03
2023-04-13T03:02:49.270Z,93910.09
2023-04-13T03:05:15.834Z,93910.97
2023-04-13T03:07:42.131Z,93906.06
2023-04-13T03:10:08.431Z,93901.31
2023-04-13T03:12:34.729Z,93891.91
2023-04-13T03:15:01.041Z,93895.91
2023-04-13T03:17:27.371Z,93900.41
2023-04-13T03:19:53.667Z,93897.03
2023-04-13T03:22:19.992Z,93898.94
2023-04-13T03:24:46.332Z,93897.34
2023-04-13T03:27:12.650Z,93902.06
2023-04-13T03:29:38.970Z,93908.75
2023-04-13T03:32:05.280Z,93912.34
2023-04-13T03:34:31.577Z,93912.97
2023-04-13T03:36:57.883Z,93915.41
2023-04-13T03:39:24.188Z,93910.28
2023-04-13T03:41:50.512Z,93921.03
2023-04-13T03:44:16.834Z,93922.19
2023-04-13T03:46:43.183Z,93925.41
2023-04-13T03:49:09.534Z,93929.75
2023-04-13T03:51:35.849Z,93927.59
2023-04-13T03:54:02.208Z,93926.16
2023-04-13T03:56:28.536Z,93930.88
2023-04-13T03:58:54.856Z,93929.88
2023-04-13T04:01:21.169Z,93926.78
2023-04-13T04:03:47.588Z,93930.13
2023-04-13T04:06:13.979Z,93928.63
2023-04-13T04:08:40.292Z,93923.91
2023-04-13T04:11:06.615Z,93928.69
2023-04-13T04:13:32.919Z,93935.06
2023-04-13T04:15:59.326Z,93929.97
2023-04-13T04:18:25.679Z,93934.44
2023-04-13T04:20:51.994Z,93936.56
2023-04-13T04:23:19.903Z,93934.41
2023-04-13T04:25:46.360Z,93932.34
2023-04-13T04:28:12.658Z,93924.59
2023-04-13T04:30:38.988Z,93924.28
2023-04-13T04:33:05.342Z,93922.16
2023-04-13T04:35:31.669Z,93922.63
2023-04-13T04:37:57.972Z,93918.41
2023-04-13T04:40:24.269Z,93921.94
2023-04-13T04:42:50.569Z,93919.72
2023-04-13T04:45:16.906Z,93919.44
2023-04-13T04:47:43.338Z,93910.38
2023-04-13T04:50:09.703Z,93930.31
2023-04-13T04:52:36.015Z,93921.38
2023-04-13T04:55:02.359Z,93934.22
2023-04-13T04:57:29.847Z,93937.69
2023-04-13T04:59:56.207Z,93939.28
2023-04-13T05:02:23.388Z,93943.03
2023-04-13T05:04:49.907Z,93947.84
2023-04-13T05:07:16.214Z,93941.59
2023-04-13T05:09:42.513Z,93943.22
2023-04-13T05:12:08.821Z,93943.28
2023-04-13T05:14:35.131Z,93947.69
2023-04-13T05:17:01.499Z,93943.16
2023-04-13T05:19:27.798Z,93946.88
2023-04-13T05:21:54.105Z,93951.63
2023-04-13T05:24:20.402Z,93950.50
2023-04-13T05:26:46.733Z,93957.16
2023-04-13T05:29:13.048Z,93952.59
2023-04-13T05:31:39.410Z,93952.84
2023-04-13T05:34:05.772Z,93951.22
2023-04-13T05:36:32.099Z,93952.72
2023-04-13T05:38:58.594Z,93959.81
2023-04-13T05:41:25.042Z,93958.88
2023-04-13T05:43:51.344Z,93957.03
2023-04-13T05:46:17.684Z,93963.81
2023-04-13T05:48:44.044Z,93963.44
2023-04-13T05:51:10.341Z,93971.56
2023-04-13T05:53:36.639Z,93961.13
2023-04-13T05:56:02.964Z,93960.22
2023-04-13T05:58:29.292Z,93963.81
2023-04-13T06:00:55.607Z,93957.75
2023-04-13T06:03:22.177Z,93961.53
2023-04-13T06:05:48.634Z,93958.09
2023-04-13T06:08:14.968Z,93955.84
2023-04-13T06:10:41.323Z,93968.38
2023-04-13T06:13:07.650Z,93965.13
2023-04-13T06:15:33.958Z,93977.81
2023-04-13T06:18:00.350Z,93973.88
2023-04-13T06:20:26.715Z,93979.56
2023-04-13T06:22:53.020Z,93981.97
2023-04-13T06:25:19.329Z,93997.78
2023-04-13T06:27:45.672Z,93995.81
2023-04-13T06:30:12.112Z,93983.44
2023-04-13T06:32:38.531Z,93978.16
2023-04-13T06:35:04.923Z,93985.94
2023-04-13T06:37:31.248Z,93983.13
2023-04-13T06:39:57.570Z,93977.75
2023-04-13T06:42:23.882Z,93980.75
2023-04-13T06:44:50.226Z,93988.09
2023-04-13T06:47:16.573Z,93983.59
2023-04-13T06:49:42.913Z,93988.84
2023-04-13T06:52:09.213Z,93988.94
2023-04-13T06:54:35.510Z,93982.50
2023-04-13T06:57:01.863Z,93979.13
2023-04-13T06:59:28.242Z,93980.59
2023-04-13T07:01:54.660Z,93979.25
2023-04-13T07:04:21.120Z,93976.03
2023-04-13T07:06:47.453Z,93962.44
2023-04-13T07:09:13.777Z,93960.97
2023-04-13T07:11:40.089Z,93966.44
2023-04-13T07:14:06.402Z,93964.41
2023-04-13T07:16:32.715Z,93965.34
2023-04-13T07:18:59.288Z,93962.97
2023-04-13T07:21:25.737Z,93966.59
2023-04-13T07:23:52.055Z,93960.53
2023-04-13T07:26:18.388Z,93968.81
2023-04-13T07:28:44.708Z,93958.97
2023-04-13T07:31:11.024Z,93957.16
2023-04-13T07:33:37.349Z,93953.72
2023-04-13T07:36:03.680Z,93951.91
2023-04-13T07:38:29.984Z,93957.03
2023-04-13T07:40:56.293Z,93948.50
2023-04-13T07:43:22.626Z,93949.16
2023-04-13T07:45:48.944Z,93948.59
2023-04-13T07:48:15.250Z,93943.53
2023-04-13T07:50:41.570Z,93940.00
2023-04-13T07:53:07.905Z,93933.19
2023-04-13T07:55:34.199Z,93934.69
2023-04-13T07:58:00.582Z,93930.81
2023-04-13T08:00:26.917Z,93933.28
2023-04-13T08:02:53.311Z,93924.59
2023-04-13T08:05:19.891Z,93941.50
2023-04-13T08:07:46.619Z,93928.38
2023-04-13T08:10:13.015Z,93936.72
2023-04-13T08:12:39.339Z,93925.59
2023-04-13T08:15:05.672Z,93928.38
2023-04-13T08:17:31.990Z,93931.31
2023-04-13T08:19:58.383Z,93930.06
2023-04-13T08:22:24.706Z,93925.81
2023-04-13T08:24:51.021Z,93924.34
2023-04-13T08:27:17.342Z,93917.38
2023-04-13T08:29:43.632Z,93915.88
2023-04-13T08:32:09.993Z,93920.84
2023-04-13T08:34:36.356Z,93922.13
2023-04-13T08:37:02.682Z,93926.53
2023-04-13T08:39:29.018Z,93925.44
2023-04-13T08:41:55.337Z,93934.31
2023-04-13T08:44:21.661Z,93942.78
2023-04-13T08:46:48.328Z,93952.25
2023-04-13T08:49:15.167Z,93942.56
2023-04-13T08:51:41.528Z,93947.88
2023-04-13T08:54:07.847Z,93949.75
2023-04-13T08:56:45.310Z,93958.91
2023-04-13T08:59:13.183Z,93959.41
2023-04-13T09:01:39.634Z,93951.50
2023-04-13T09:04:06.197Z,93946.88
2023-04-13T09:06:32.621Z,93937.19
2023-04-13T09:08:59.118Z,93935.31
2023-04-13T09:11:25.673Z,93938.44
2023-04-13T09:13:51.983Z,93930.50
2023-04-13T09:16:18.331Z,93934.69
2023-04-13T09:18:44.673Z,93933.13
2023-04-13T09:21:10.996Z,93925.81
2023-04-13T09:23:37.312Z,93914.66
2023-04-13T09:26:03.615Z,93925.91
2023-04-13T09:28:29.943Z,93918.03
2023-04-13T09:30:56.311Z,93915.81
2023-04-13T09:33:22.656Z,93910.69
2023-04-13T09:35:48.983Z,93909.63
2023-04-13T09:38:15.347Z,93905.88
2023-04-13T09:40:41.764Z,93910.44
2023-04-13T09:43:08.176Z,93939.47
2023-04-13T09:45:34.556Z,93951.78
2023-04-13T09:48:00.937Z,93970.31
2023-04-13T09:50:27.289Z,93972.19
2023-04-13T09:52:53.617Z,93974.63
2023-04-13T09:55:19.963Z,93969.19
2023-04-13T09:57:46.277Z,93967.91
2023-04-13T10:00:12.597Z,93960.28
2023-04-13T10:02:39.056Z,93955.72
2023-04-13T10:05:05.579Z,93949.53
2023-04-13T10:07:31.919Z,93951.66
2023-04-13T10:09:58.293Z,93956.88
2023-04-13T10:12:24.620Z,93956.66
2023-04-13T10:14:50.936Z,93954.38
2023-04-13T10:17:17.267Z,93956.78
2023-04-13T10:19:43.598Z,93957.81
2023-04-13T10:22:09.917Z,93966.06
2023-04-13T10:24:36.253Z,93969.78
2023-04-13T10:27:02.577Z,93964.06
2023-04-13T10:29:28.890Z,93961.34
2023-04-13T10:31:56.169Z,93950.41
2023-04-13T10:34:22.591Z,93956.69
2023-04-13T10:36:48.890Z,93964.22
2023-04-13T10:39:15.220Z,93954.94
2023-04-13T10:41:41.519Z,93951.72
2023-04-13T10:44:07.922Z,93950.13
2023-04-13T10:46:34.352Z,93942.56
2023-04-13T10:49:00.832Z,93943.25
2023-04-13T10:51:27.257Z,93952.13
2023-04-13T10:53:53.558Z,93945.47
2023-04-13T10:56:19.874Z,93940.25
2023-04-13T10:58:46.285Z,93935.22
2023-04-13T11:01:12.606Z,93933.31
2023-04-13T11:03:43.103Z,93939.00
2023-04-13T11:06:13.620Z,93931.78
2023-04-13T11:08:39.932Z,93937.19
2023-04-13T11:11:06.237Z,93934.13
2023-04-13T11:13:32.546Z,93934.13
2023-04-13T11:15:58.846Z,93928.16
2023-04-13T11:18:25.172Z,93929.19
2023-04-13T11:20:51.471Z,93926.81
2023-04-13T11:23:17.789Z,93932.44
2023-04-13T11:25:44.125Z,93923.25
2023-04-13T11:28:10.468Z,93925.63
2023-04-13T11:30:36.929Z,93928.31
2023-04-13T11:33:03.329Z,93912.94
2023-04-13T11:35:29.674Z,93911.59
2023-04-13T11:37:56.058Z,93911.94
2023-04-13T11:40:22.491Z,93904.88
2023-04-13T11:42:48.801Z,93900.28
2023-04-13T11:45:15.117Z,93900.34
2023-04-13T11:47:41.440Z,93896.03
2023-04-13T11:50:07.788Z,93897.34
2023-04-13T11:52:34.117Z,93896.56
2023-04-13T11:55:10.722Z,93890.50
2023-04-13T11:57:45.739Z,93886.00
2023-04-13T12:00:12.147Z,93881.69
2023-04-13T12:02:51.492Z,93891.47
2023-04-13T12:05:24.936Z,93887.63
2023-04-13T12:07:52.222Z,93871.34
2023-04-13T12:10:23.325Z,93879.16
2023-04-13T12:12:56.443Z,93876.78
2023-04-13T12:15:40.124Z,93860.06
2023-04-13T12:18:15.358Z,93867.88
2023-04-13T12:20:43.968Z,93858.72
2023-04-13T12:23:19.034Z,93857.09
2023-04-13T12:25:49.819Z,93856.06
2023-04-13T12:28:16.212Z,93861.16
2023-04-13T12:30:42.513Z,93846.38
2023-04-13T12:33:08.958Z,93853.25
2023-04-13T12:35:35.368Z,93850.00
2023-04-13T12:38:01.668Z,93844.50
2023-04-13T12:40:27.988Z,93843.75
2023-04-13T12:42:54.301Z,93846.09
2023-04-13T12:45:20.613Z,93840.69
2023-04-13T12:47:47.026Z,93848.94
2023-04-13T12:50:13.371Z,93841.16
2023-04-13T12:52:39.701Z,93837.72
2023-04-13T12:55:06.023Z,93840.16
2023-04-13T12:57:32.410Z,93836.75
2023-04-13T12:59:58.840Z,93835.72
2023-04-13T13:02:25.220Z,93826.84
2023-04-13T13:04:51.835Z,93828.03
2023-04-13T13:07:18.278Z,93836.75
2023-04-13T13:09:44.582Z,93821.16
2023-04-13T13:12:10.883Z,93835.91
2023-04-13T13:14:37.191Z,93835.69
2023-04-13T13:17:03.530Z,93828.78
2023-04-13T13:19:29.851Z,93834.97
2023-04-13T13:21:56.157Z,93835.19
2023-04-13T13:24:22.468Z,93842.41
2023-04-13T13:27:14.286Z,93844.03
2023-04-13T13:29:35.042Z,93845.66
2023-04-13T13:32:01.411Z,93843.25
2023-04-13T13:34:27.802Z,93833.78
2023-04-13T13:36:54.110Z,93835.50
2023-04-13T13:39:20.407Z,93831.44
2023-04-13T13:41:46.733Z,93834.50
2023-04-13T13:44:13.100Z,93828.88
2023-04-13T13:46:39.451Z,93825.03
2023-04-13T13:49:05.813Z,93831.53
2023-04-13T13:51:32.140Z,93841.41
2023-04-13T13:53:58.475Z,93834.50
2023-04-13T13:56:24.830Z,93835.13
2023-04-13T13:58:51.141Z,93825.19
2023-04-13T14:01:17.530Z,93832.69
2023-04-13T14:03:43.968Z,93820.78
2023-04-13T14:06:10.348Z,93817.50
2023-04-13T14:08:36.689Z,93825.19
2023-04-13T14:11:03.008Z,93834.31
2023-04-13T14:13:29.349Z,93833.31
2023-04-13T14:15:55.695Z,93820.53
2023-04-13T14:18:22.068Z,93824.59
2023-04-13T14:20:48.396Z,93824.41
2023-04-13T14:23:14.751Z,93825.19
2023-04-13T14:25:41.323Z,93823.56
2023-04-13T14:28:07.741Z,93826.38
2023-04-13T14:30:34.082Z,93819.47
2023-04-13T14:33:00.436Z,93819.41
2023-04-13T14:35:26.769Z,93818.53
2023-04-13T14:37:53.162Z,93820.63
2023-04-13T14:40:19.491Z,93807.63
2023-04-13T14:42:45.830Z,93827.34
2023-04-13T14:45:12.186Z,93826.84
2023-04-13T14:47:38.532Z,93831.25
2023-04-13T14:50:05.124Z,93828.59
2023-04-13T14:52:31.472Z,93824.69
2023-04-13T14:54:57.797Z,93817.97
2023-04-13T14:57:24.118Z,93813.75
2023-04-13T14:59:50.499Z,93811.41
2023-04-13T15:02:16.916Z,93814.22
2023-04-13T15:04:43.566Z,93811.59
2023-04-13T15:07:09.960Z,93810.00
2023-04-13T15:09:36.296Z,93806.06
2023-04-13T15:12:02.630Z,93797.28
2023-04-13T15:14:28.967Z,93801.00
2023-04-13T15:16:55.318Z,93801.53
2023-04-13T15:19:21.765Z,93788.56
2023-04-13T15:21:48.091Z,93792.34
2023-04-13T15:24:14.428Z,93789.03
2023-04-13T15:26:40.717Z,93789.78
2023-04-13T15:29:07.061Z,93787.72
2023-04-13T15:31:33.424Z,93790.13
2023-04-13T15:33:59.781Z,93793.44
2023-04-13T15:36:26.097Z,93795.50
2023-04-13T15:38:52.419Z,93799.31
2023-04-13T15:41:18.719Z,93800.66
2023-04-13T15:43:45.028Z,93798.75
2023-04-13T15:46:11.467Z,93792.84
2023-04-13T15:48:37.809Z,93791.22
2023-04-13T15:51:04.116Z,93793.97
2023-04-13T15:53:30.429Z,93792.19
2023-04-13T15:55:56.766Z,93794.38
2023-04-13T15:58:23.087Z,93800.75
2023-04-13T16:00:49.382Z,93792.09
2023-04-13T16:03:15.813Z,93804.94
2023-04-13T16:05:42.213Z,93795.81
2023-04-13T16:08:08.532Z,93801.34
2023-04-13T16:10:34.857Z,93799.56
2023-04-13T16:13:01.153Z,93806.69
2023-04-13T16:15:27.524Z,93806.88
2023-04-13T16:17:53.913Z,93809.16
2023-04-13T16:20:20.262Z,93813.06
2023-04-13T16:22:46.577Z,93807.44
2023-04-13T16:25:12.898Z,93812.59
2023-04-13T16:27:39.200Z,93817.94
2023-04-13T16:30:05.500Z,93821.75
2023-04-13T16:32:31.855Z,93829.03
2023-04-13T16:34:58.199Z,93825.81
2023-04-13T16:37:24.515Z,93833.69
2023-04-13T16:39:50.841Z,93830.47
2023-04-13T16:42:17.173Z,93848.06
2023-04-13T16:44:43.476Z,93840.19
2023-04-13T16:47:09.870Z,93859.75
2023-04-13T16:49:36.260Z,93859.69
2023-04-13T16:52:02.577Z,93868.81
2023-04-13T16:54:28.884Z,93873.69
2023-04-13T16:56:55.178Z,93883.19
2023-04-13T16:59:21.486Z,93884.94
2023-04-13T17:01:47.862Z,93888.44
2023-04-13T17:04:14.276Z,93883.88
2023-04-13T17:06:40.641Z,93876.38
2023-04-13T17:09:06.952Z,93888.66
2023-04-13T17:11:33.274Z,93895.13
2023-04-13T17:13:59.609Z,93883.94
2023-04-13T17:16:25.972Z,93889.44
2023-04-13T17:18:52.273Z,93898.59
2023-04-13T17:21:18.584Z,93900.31
2023-04-13T17:23:44.897Z,93895.13
2023-04-13T17:26:11.229Z,93901.00
2023-04-13T17:28:37.560Z,93895.88
2023-04-13T17:31:03.854Z,93901.50
2023-04-13T17:33:30.178Z,93897.69
2023-04-13T17:35:56.488Z,93891.50
2023-04-13T17:38:22.807Z,93894.84
2023-04-13T17:40:49.107Z,93881.91
2023-04-13T17:43:15.442Z,93877.75
2023-04-13T17:45:41.747Z,93883.66
2023-04-13T17:48:08.154Z,93886.56
2023-04-13T17:50:34.493Z,93877.13
2023-04-13T17:53:00.807Z,93878.56
2023-04-13T17:55:27.118Z,93872.19
2023-04-13T17:57:53.435Z,93869.00
2023-04-13T18:00:19.756Z,93876.09
2023-04-13T18:02:46.140Z,93874.69
2023-04-13T18:05:12.537Z,93881.03
2023-04-13T18:07:38.852Z,93876.47
2023-04-13T18:10:05.182Z,93884.69
2023-04-13T18:12:31.534Z,93887.63
2023-04-13T18:14:57.841Z,93895.03
2023-04-13T18:17:24.193Z,93902.91
2023-04-13T18:19:50.525Z,93904.69
2023-04-13T18:22:16.832Z,93911.63
2023-04-13T18:24:43.164Z,93913.94
2023-04-13T18:27:09.491Z,93928.00
2023-04-13T18:29:35.825Z,93929.44
2023-04-13T18:32:03.241Z,93926.47
2023-04-13T18:34:29.553Z,93928.84
2023-04-13T18:36:55.860Z,93932.44
2023-04-13T18:39:22.186Z,93930.75
2023-04-13T18:41:48.502Z,93929.66
2023-04-13T18:44:14.851Z,93932.81
2023-04-13T18:46:41.247Z,93933.41
2023-04-13T18:49:07.641Z,93937.94
2023-04-13T18:51:33.958Z,93948.13
2023-04-13T18:54:00.471Z,93955.19
2023-04-13T18:56:26.969Z,93959.00
2023-04-13T18:58:53.293Z,93956.72
2023-04-13T19:01:19.787Z,93971.53
2023-04-13T19:03:46.472Z,93965.22
2023-04-13T19:06:12.978Z,93974.97
2023-04-13T19:08:39.294Z,93971.38
2023-04-13T19:11:05.617Z,93980.13
2023-04-13T19:13:31.922Z,93976.63
2023-04-13T19:15:58.234Z,93986.00
2023-04-13T19:18:24.575Z,93991.25
2023-04-13T19:20:50.889Z,93984.00
2023-04-13T19:23:17.208Z,93995.03
2023-04-13T19:25:43.520Z,93998.41
2023-04-13T19:28:09.838Z,93995.31
2023-04-13T19:30:36.144Z,93994.56
2023-04-13T19:33:02.505Z,93999.56
2023-04-13T19:35:28.845Z,93996.50
2023-04-13T19:37:55.215Z,93998.09
2023-04-13T19:40:21.529Z,94000.31
2023-04-13T19:42:47.822Z,93997.41
2023-04-13T19:45:14.128Z,93995.47
2023-04-13T19:47:40.509Z,93999.53
2023-04-13T19:50:06.833Z,93998.59
2023-04-13T19:52:33.133Z,94005.31
2023-04-13T19:54:59.463Z,93997.78
2023-04-13T19:57:25.787Z,93997.84
2023-04-13T19:59:52.162Z,94003.25
2023-04-13T20:02:18.742Z,93994.97
2023-04-13T20:04:45.255Z,94004.13
2023-04-13T20:07:11.589Z,94005.47
2023-04-13T20:09:37.899Z,94015.16
2023-04-13T20:12:04.197Z,94007.84
2023-04-13T20:14:30.510Z,94017.34
2023-04-13T20:16:56.929Z,94018.84
2023-04-13T20:19:23.249Z,94016.59
2023-04-13T20:21:49.562Z,94022.78
2023-04-13T20:24:15.917Z,94020.13
2023-04-13T20:26:42.235Z,94025.50
2023-04-13T20:29:08.599Z,94018.47
2023-04-13T20:31:35.008Z,94030.50
2023-04-13T20:34:01.400Z,94032.19
2023-04-13T20:36:28.097Z,94027.19
2023-04-13T20:38:54.502Z,94041.69
2023-04-13T20:41:20.852Z,94031.41
2023-04-13T20:43:47.165Z,94033.44
2023-04-13T20:46:13.528Z,94042.72
2023-04-13T20:51:09.087Z,94045.41
2023-04-13T20:53:35.412Z,94054.09
2023-04-13T20:56:01.722Z,94049.38
2023-04-13T20:58:28.044Z,94041.88
2023-04-13T21:00:54.376Z,94050.72
2023-04-13T21:03:20.906Z,94048.31
2023-04-13T21:05:47.254Z,94053.53
2023-04-13T21:08:13.581Z,94049.78
2023-04-13T21:10:39.893Z,94055.00
2023-04-13T21:13:06.224Z,94050.13
2023-04-13T21:15:32.547Z,94047.81
2023-04-13T21:17:58.852Z,94040.50
2023-04-13T21:20:25.205Z,94039.84
2023-04-13T21:22:51.529Z,94033.94
2023-04-13T21:25:17.853Z,94036.72
2023-04-13T21:27:44.163Z,94029.25
2023-04-13T21:30:10.509Z,94029.25
2023-04-13T21:32:36.841Z,94031.38
2023-04-13T21:35:03.202Z,94032.34
2023-04-13T21:37:29.593Z,94031.53
2023-04-13T21:39:55.925Z,94031.38
2023-04-13T21:42:22.802Z,94039.56
2023-04-13T21:44:49.231Z,94035.94
2023-04-13T21:47:15.555Z,94033.97
2023-04-13T21:49:41.859Z,94038.06
2023-04-13T21:52:08.161Z,94035.78
2023-04-13T21:54:34.474Z,94034.97
2023-04-13T21:57:00.796Z,94039.06
2023-04-13T21:59:27.157Z,94041.84
2023-04-13T22:01:53.572Z,94052.44
2023-04-13T22:04:20.115Z,94055.03
2023-04-13T22:06:46.482Z,94055.84
2023-04-13T22:09:12.788Z,94050.78
2023-04-13T22:11:39.115Z,94054.56
2023-04-13T22:14:05.434Z,94060.28
2023-04-13T22:16:31.746Z,94055.03
2023-04-13T22:18:58.250Z,94049.00
2023-04-13T22:21:24.837Z,94051.13
2023-04-13T22:23:51.186Z,94047.38
2023-04-13T22:26:17.496Z,94048.03
2023-04-13T22:28:43.809Z,94046.75
2023-04-13T22:31:10.145Z,94048.38
2023-04-13T22:33:36.581Z,94047.88
2023-04-13T22:36:02.931Z,94052.63
2023-04-13T22:38:29.258Z,94051.00
2023-04-13T22:40:55.593Z,94050.50
2023-04-13T22:43:21.945Z,94052.47
2023-04-13T22:45:48.277Z,94051.31
2023-04-13T22:48:14.604Z,94056.53
2023-04-13T22:50:40.918Z,94062.56
2023-04-13T22:53:07.240Z,94059.66
2023-04-13T22:55:33.570Z,94065.00
2023-04-13T22:57:59.893Z,94059.31
2023-04-13T23:00:26.236Z,94061.75
2023-04-13T23:02:52.835Z,94060.47
2023-04-13T23:05:19.437Z,94067.78
2023-04-13T23:07:45.737Z,94065.34
2023-04-13T23:10:12.046Z,94062.09
2023-04-13T23:12:38.354Z,94060.94
2023-04-13T23:15:04.662Z,94059.81
2023-04-13T23:17:31.020Z,94066.31
2023-04-13T23:19:57.441Z,94054.56
2023-04-13T23:22:23.754Z,94052.94
2023-04-13T23:24:50.070Z,94058.31
2023-04-13T23:27:16.393Z,94053.59
2023-04-13T23:29:42.718Z,94057.03
2023-04-13T23:32:09.076Z,94055.06
2023-04-13T23:34:35.403Z,94054.44
2023-04-13T23:37:01.750Z,94052.13
2023-04-13T23:39:28.046Z,94054.09
2023-04-13T23:41:54.350Z,94056.88
2023-04-13T23:44:20.674Z,94052.28
2023-04-13T23:46:46.986Z,94051.47
2023-04-13T23:49:13.314Z,94056.69
2023-04-13T23:51:39.632Z,94053.09
2023-04-13T23:54:05.938Z,94056.06
2023-04-13T23:56:32.263Z,94058.50
2023-04-13T23:58:58.728Z,94055.41
